Time;durP1;ratioP1;P1;durP2;ratioP2;P2;SDS_P1;SDS_P2;PMS_P1;PMS_P2;Temp;Humidity;BMP_temperature;BMP_pressure;BME280_temperature;BME280_humidity;BME280_pressure;Samples;Min_cycle;Max_cycle;Signal;HPM_P1;HPM_P2
2021/12/14 00:00:33;;;;;;;18.60;14.15;;;8.60;99.90;;;;;;5094840;28;20219;-63
2021/12/14 00:03:02;;;;;;;17.58;15.77;;;8.50;99.90;;;;;;5094267;28;20287;-63
2021/12/14 00:05:31;;;;;;;16.30;14.82;;;8.50;99.90;;;;;;5094527;28;20222;-63
2021/12/14 00:08:02;;;;;;;16.55;14.85;;;8.50;99.90;;;;;;5094635;28;20229;-63
2021/12/14 00:11:07;;;;;;;14.60;13.18;;;8.40;99.90;;;;;;5110907;28;20225;-62
2021/12/14 00:13:48;;;;;;;15.32;13.93;;;8.50;99.90;;;;;;5114074;28;20241;-63
2021/12/14 00:16:16;;;;;;;16.83;15.02;;;8.50;99.90;;;;;;5114727;28;20294;-62
2021/12/14 00:18:44;;;;;;;17.67;14.10;;;8.60;99.90;;;;;;5094349;28;20370;-62
2021/12/14 00:21:20;;;;;;;15.25;13.65;;;8.50;99.90;;;;;;5094332;28;20655;-63
2021/12/14 00:24:09;;;;;;;18.50;14.90;;;8.40;99.90;;;;;;5094098;28;20585;-63
2021/12/14 00:26:40;;;;;;;15.63;14.20;;;8.30;99.90;;;;;;5099809;28;20576;-62
2021/12/14 00:29:10;;;;;;;19.52;16.40;;;8.30;99.90;;;;;;5114386;28;20689;-63
2021/12/14 00:31:38;;;;;;;18.20;16.33;;;8.30;99.90;;;;;;5114547;28;20619;-63
2021/12/14 00:34:08;;;;;;;16.60;14.93;;;8.30;99.90;;;;;;5114321;28;20266;-63
2021/12/14 00:36:38;;;;;;;15.50;13.80;;;8.30;99.90;;;;;;5114405;28;20221;-63
2021/12/14 00:39:10;;;;;;;17.50;15.70;;;8.20;99.90;;;;;;5114289;28;20226;-63
2021/12/14 00:41:39;;;;;;;19.25;15.88;;;8.20;99.90;;;;;;5114427;28;20276;-63
2021/12/14 00:44:09;;;;;;;17.00;15.20;;;8.10;99.90;;;;;;5106824;28;20222;-63
2021/12/14 00:46:38;;;;;;;16.23;13.88;;;8.10;99.90;;;;;;5112910;28;20761;-63
2021/12/14 00:49:07;;;;;;;19.77;16.23;;;8.10;99.90;;;;;;5113869;28;20746;-63
2021/12/14 00:51:35;;;;;;;17.90;14.88;;;8.20;99.90;;;;;;5114124;28;20585;-63
2021/12/14 00:54:08;;;;;;;18.35;15.25;;;8.20;99.90;;;;;;5113827;28;20301;-62
2021/12/14 00:56:37;;;;;;;20.00;14.48;;;8.20;99.90;;;;;;5114273;28;20624;-63
2021/12/14 00:59:07;;;;;;;16.02;14.43;;;8.30;99.90;;;;;;5112842;28;20233;-63
2021/12/14 01:01:39;;;;;;;16.60;14.85;;;8.30;99.90;;;;;;5105685;28;20879;-63
2021/12/14 01:04:13;;;;;;;15.02;13.43;;;8.40;99.90;;;;;;5093035;28;20600;-62
2021/12/14 01:06:46;;;;;;;16.95;13.98;;;8.40;99.90;;;;;;5093705;28;20234;-63
2021/12/14 01:09:16;;;;;;;16.83;15.23;;;8.40;99.90;;;;;;5096270;28;20726;-63
2021/12/14 01:11:49;;;;;;;15.70;14.20;;;8.40;99.90;;;;;;5114151;28;20289;-63
2021/12/14 01:14:24;;;;;;;15.05;13.40;;;8.40;99.90;;;;;;5113627;28;20234;-63
2021/12/14 01:17:09;;;;;;;16.08;13.05;;;8.50;99.90;;;;;;5106290;28;20224;-63
2021/12/14 01:19:40;;;;;;;14.77;13.23;;;8.50;99.90;;;;;;5098626;28;20198;-63
2021/12/14 01:22:18;;;;;;;16.10;14.43;;;8.50;99.90;;;;;;5093345;28;20281;-63
2021/12/14 01:25:02;;;;;;;15.43;13.75;;;8.50;99.90;;;;;;5112778;28;20213;-63
2021/12/14 01:27:36;;;;;;;15.10;12.75;;;8.50;99.90;;;;;;5113329;28;20197;-63
2021/12/14 01:30:13;;;;;;;16.80;15.10;;;8.50;99.90;;;;;;5113580;28;20281;-65
2021/12/14 01:32:44;;;;;;;18.02;15.82;;;8.50;99.90;;;;;;5113154;28;20201;-64
2021/12/14 01:35:15;;;;;;;16.52;14.40;;;8.50;99.90;;;;;;5094103;28;20218;-63
2021/12/14 01:37:59;;;;;;;17.48;13.55;;;8.50;99.90;;;;;;5092919;28;20615;-64
2021/12/14 01:43:33;;;;;;;16.55;14.90;;;8.50;99.90;;;;;;5083057;28;20732;-62
2021/12/14 01:46:04;;;;;;;16.48;14.40;;;8.60;99.90;;;;;;5051210;28;20299;-63
2021/12/14 01:48:33;;;;;;;16.08;14.20;;;8.60;99.90;;;;;;5049257;28;20740;-63
2021/12/14 01:51:03;;;;;;;17.42;14.55;;;8.60;99.90;;;;;;5053836;28;20196;-62
2021/12/14 01:53:31;;;;;;;16.45;14.90;;;8.50;99.90;;;;;;5059083;28;20647;-62
2021/12/14 01:56:04;;;;;;;16.48;14.77;;;8.60;99.90;;;;;;5065394;28;20596;-62
2021/12/14 01:58:38;;;;;;;18.35;14.98;;;8.60;99.90;;;;;;5068569;28;20226;-63
2021/12/14 02:01:11;;;;;;;16.13;14.45;;;8.60;99.90;;;;;;5068572;28;20652;-62
2021/12/14 02:03:45;;;;;;;16.35;14.57;;;8.60;99.90;;;;;;5066266;28;20211;-63
2021/12/14 02:06:15;;;;;;;18.40;15.25;;;8.50;99.90;;;;;;5068480;28;20226;-62
2021/12/14 02:08:43;;;;;;;16.27;14.68;;;8.60;99.90;;;;;;5068663;28;20611;-63
2021/12/14 02:11:12;;;;;;;16.63;14.63;;;8.60;99.90;;;;;;5068117;28;20203;-63
2021/12/14 02:13:45;;;;;;;17.20;14.43;;;8.60;99.90;;;;;;5049957;28;20243;-63
2021/12/14 02:16:16;;;;;;;20.05;15.80;;;8.60;99.90;;;;;;5072589;28;20286;-62
2021/12/14 02:18:56;;;;;;;16.02;14.57;;;8.50;99.90;;;;;;5048189;28;20192;-62
2021/12/14 02:21:28;;;;;;;15.02;13.25;;;8.50;99.90;;;;;;5048344;28;20219;-63
2021/12/14 02:23:58;;;;;;;16.27;14.68;;;8.60;99.90;;;;;;5062439;23;20242;-65
2021/12/14 02:26:29;;;;;;;17.02;14.70;;;8.60;99.90;;;;;;5047432;28;20232;-65
2021/12/14 02:28:59;;;;;;;16.98;14.45;;;8.60;99.90;;;;;;5047880;28;20283;-65
2021/12/14 02:31:28;;;;;;;17.60;15.80;;;8.50;99.90;;;;;;5047996;28;20199;-65
2021/12/14 02:34:02;;;;;;;19.02;17.05;;;8.40;99.90;;;;;;5044595;28;20248;-65
2021/12/14 02:36:35;;;;;;;18.50;16.60;;;8.30;99.90;;;;;;5028322;28;20251;-65
2021/12/14 02:39:09;;;;;;;19.70;17.70;;;8.30;99.90;;;;;;5027052;28;20221;-65
2021/12/14 02:41:46;;;;;;;18.35;16.50;;;8.20;99.90;;;;;;5008224;28;20685;-65
2021/12/14 02:44:15;;;;;;;19.25;16.95;;;8.20;99.90;;;;;;5026866;28;20263;-65
2021/12/14 02:46:46;;;;;;;19.02;17.10;;;8.20;99.90;;;;;;5046994;28;20220;-66
2021/12/14 02:49:18;;;;;;;20.50;16.58;;;8.20;99.90;;;;;;5047966;28;20294;-65
2021/12/14 02:51:51;;;;;;;21.73;19.30;;;8.20;99.90;;;;;;5047696;28;20246;-65
2021/12/14 02:54:21;;;;;;;16.83;15.23;;;8.30;99.90;;;;;;5036825;28;20685;-64
2021/12/14 02:56:54;;;;;;;19.83;17.73;;;8.30;99.90;;;;;;5018237;28;20208;-65
2021/12/14 02:59:29;;;;;;;17.85;15.95;;;8.20;99.90;;;;;;5001776;28;20237;-65
2021/12/14 03:02:03;;;;;;;19.20;17.20;;;8.20;99.90;;;;;;5014442;28;20606;-65
2021/12/14 03:04:32;;;;;;;18.20;16.38;;;8.20;99.90;;;;;;5014029;28;20226;-65
2021/12/14 03:07:02;;;;;;;18.25;16.35;;;8.30;99.90;;;;;;5014381;28;20220;-65
2021/12/14 03:09:39;;;;;;;20.73;17.15;;;8.20;99.90;;;;;;5014340;28;20243;-65
2021/12/14 03:12:13;;;;;;;18.23;16.13;;;8.20;99.90;;;;;;5014509;28;20205;-66
2021/12/14 03:14:49;;;;;;;20.10;16.85;;;8.10;99.90;;;;;;5016279;28;20709;-66
2021/12/14 03:17:18;;;;;;;20.42;16.98;;;8.10;99.90;;;;;;5033899;28;20238;-65
2021/12/14 03:19:54;;;;;;;17.70;15.90;;;8.00;99.90;;;;;;5022766;28;20224;-65
2021/12/14 03:22:31;;;;;;;20.40;17.25;;;7.90;99.90;;;;;;5013875;28;20213;-66
2021/12/14 03:24:59;;;;;;;19.50;17.10;;;7.90;99.90;;;;;;5013260;28;20721;-65
2021/12/14 03:27:28;;;;;;;20.02;17.83;;;7.80;99.90;;;;;;5014027;28;20618;-65
2021/12/14 03:29:56;;;;;;;20.48;18.25;;;7.70;99.90;;;;;;5013617;28;20236;-66
2021/12/14 03:32:24;;;;;;;20.58;17.27;;;7.80;99.90;;;;;;4994174;28;20194;-65
2021/12/14 03:34:52;;;;;;;17.77;15.98;;;7.80;99.90;;;;;;4993774;28;20260;-64
2021/12/14 03:37:23;;;;;;;19.00;16.73;;;7.80;99.90;;;;;;4994412;28;20289;-65
2021/12/14 03:39:58;;;;;;;20.88;18.05;;;7.80;99.90;;;;;;4994279;28;20233;-65
2021/12/14 03:42:35;;;;;;;20.10;17.20;;;7.90;99.90;;;;;;4993996;28;20679;-65
2021/12/14 03:45:09;;;;;;;20.92;18.60;;;8.00;99.90;;;;;;5005828;28;20208;-65
2021/12/14 03:47:39;;;;;;;22.05;19.73;;;7.90;99.90;;;;;;5030931;28;20632;-65
2021/12/14 03:50:14;;;;;;;22.25;19.20;;;7.80;99.90;;;;;;5006240;28;20222;-65
2021/12/14 03:52:43;;;;;;;21.63;19.42;;;7.80;99.90;;;;;;4993745;28;20224;-64
2021/12/14 03:55:15;;;;;;;22.80;19.85;;;7.80;99.90;;;;;;4993652;28;20237;-64
2021/12/14 03:57:43;;;;;;;23.52;20.65;;;7.70;99.90;;;;;;4993827;28;20241;-67
2021/12/14 04:00:17;;;;;;;22.77;20.42;;;7.80;99.90;;;;;;4993692;28;20256;-64
2021/12/14 04:02:45;;;;;;;23.27;20.88;;;7.70;99.90;;;;;;4993649;28;20254;-64
2021/12/14 04:05:14;;;;;;;25.85;22.30;;;7.60;99.90;;;;;;5006189;28;20304;-65
2021/12/14 04:07:45;;;;;;;25.15;22.02;;;7.60;99.90;;;;;;5033020;28;20225;-66
2021/12/14 04:10:17;;;;;;;23.15;20.75;;;7.60;99.90;;;;;;5032888;28;20228;-65
2021/12/14 04:12:51;;;;;;;30.67;25.98;;;7.50;99.90;;;;;;5032899;28;20238;-64
2021/12/14 04:15:20;;;;;;;28.88;25.75;;;7.60;99.90;;;;;;5032131;28;20407;-64
2021/12/14 04:17:48;;;;;;;30.15;26.13;;;7.60;99.90;;;;;;5005952;28;20280;-65
2021/12/14 04:20:22;;;;;;;29.23;26.33;;;7.60;99.90;;;;;;5012890;28;20198;-65
2021/12/14 04:22:50;;;;;;;29.95;26.75;;;7.60;99.90;;;;;;4995227;28;20301;-65
2021/12/14 04:25:24;;;;;;;30.65;26.73;;;7.70;99.90;;;;;;5012411;28;20277;-64
2021/12/14 04:27:53;;;;;;;30.92;27.40;;;7.60;99.90;;;;;;5012887;28;20221;-65
2021/12/14 04:30:24;;;;;;;35.35;30.70;;;7.70;99.90;;;;;;5012519;28;20277;-65
2021/12/14 04:32:55;;;;;;;37.20;30.83;;;7.50;99.90;;;;;;5012483;28;20217;-65
2021/12/14 04:35:23;;;;;;;33.22;29.73;;;7.50;99.90;;;;;;5012470;28;20256;-65
2021/12/14 04:37:54;;;;;;;34.47;29.73;;;7.50;99.90;;;;;;5012587;28;20276;-66
2021/12/14 04:51:53;;;;;;;34.60;30.02;;;7.40;99.90;;;;;;5012194;28;20198;-66
2021/12/14 04:51:58;;;;;;;28.25;23.90;;;7.30;99.90;;;;;;5032248;28;20197;-65
2021/12/14 04:54:27;;;;;;;25.67;22.95;;;7.20;99.90;;;;;;5031739;28;20247;-65
2021/12/14 04:56:57;;;;;;;27.30;23.33;;;7.30;99.90;;;;;;5006340;28;20285;-67
2021/12/14 04:59:28;;;;;;;27.85;23.13;;;7.30;99.90;;;;;;4992453;28;20225;-67
2021/12/14 05:02:04;;;;;;;26.20;22.88;;;7.30;99.90;;;;;;4992978;28;20194;-65
2021/12/14 05:04:33;;;;;;;34.17;25.45;;;7.30;99.90;;;;;;4992087;28;20757;-63
2021/12/14 05:07:25;;;;;;;28.05;25.25;;;7.40;99.90;;;;;;4992489;28;20286;-65
2021/12/14 05:09:50;;;;;;;31.95;26.80;;;7.30;99.90;;;;;;4997543;28;20605;-66
2021/12/14 05:12:23;;;;;;;32.83;27.83;;;7.30;99.90;;;;;;4999077;28;20225;-65
2021/12/14 05:14:52;;;;;;;32.13;26.92;;;7.30;99.90;;;;;;4993965;28;20242;-66
2021/12/14 05:17:22;;;;;;;35.33;29.40;;;7.30;99.90;;;;;;5010311;28;20201;-65
2021/12/14 05:19:52;;;;;;;31.33;27.92;;;7.30;99.90;;;;;;5019889;28;20236;-65
2021/12/14 05:22:24;;;;;;;34.42;28.25;;;7.30;99.90;;;;;;5011173;28;20208;-65
2021/12/14 05:24:55;;;;;;;35.58;31.13;;;7.30;99.90;;;;;;5011247;28;20249;-65
2021/12/14 05:27:28;;;;;;;36.95;32.28;;;7.20;99.90;;;;;;5011880;28;20748;-66
2021/12/14 05:30:06;;;;;;;38.60;33.30;;;7.20;99.90;;;;;;5011917;28;20197;-66
2021/12/14 05:32:34;;;;;;;39.70;33.80;;;7.20;99.90;;;;;;5011839;28;20197;-65
2021/12/14 05:35:02;;;;;;;42.47;34.03;;;7.20;99.90;;;;;;5011246;28;20248;-65
2021/12/14 05:37:34;;;;;;;41.00;32.42;;;7.20;99.90;;;;;;5011332;28;20192;-65
2021/12/14 05:40:06;;;;;;;39.83;35.08;;;7.20;99.90;;;;;;5011849;28;20197;-65
2021/12/14 05:45:23;;;;;;;42.85;37.05;;;7.30;99.90;;;;;;5009184;28;20656;-65
2021/12/14 05:47:58;;;;;;;40.47;34.90;;;7.40;99.90;;;;;;5018793;28;20716;-65
2021/12/14 05:50:31;;;;;;;36.38;32.45;;;7.50;99.90;;;;;;5031413;28;20200;-65
2021/12/14 05:53:00;;;;;;;39.00;33.22;;;7.50;99.90;;;;;;5015052;28;20561;-65
2021/12/14 05:55:32;;;;;;;43.05;36.28;;;7.50;99.90;;;;;;5011175;28;20218;-65
2021/12/14 05:58:03;;;;;;;61.47;45.42;;;7.50;99.90;;;;;;5003803;28;20198;-64
2021/12/14 06:00:32;;;;;;;68.53;51.13;;;7.60;99.90;;;;;;5001677;28;20235;-66
2021/12/14 06:03:01;;;;;;;54.58;41.53;;;7.60;99.90;;;;;;5006294;28;20254;-66
2021/12/14 06:05:30;;;;;;;43.80;38.67;;;7.70;99.90;;;;;;5006485;28;20239;-67
2021/12/14 06:08:00;;;;;;;38.20;33.88;;;7.70;99.90;;;;;;5019451;28;20312;-66
2021/12/14 06:10:29;;;;;;;37.70;33.70;;;7.60;99.90;;;;;;5018981;28;20232;-66
2021/12/14 06:12:57;;;;;;;38.78;33.92;;;7.70;99.90;;;;;;5025483;28;20664;-66
2021/12/14 06:15:28;;;;;;;36.58;32.67;;;7.60;99.90;;;;;;5021231;28;20255;-67
2021/12/14 06:17:56;;;;;;;34.58;30.83;;;7.70;99.90;;;;;;5013221;28;20232;-65
2021/12/14 06:20:26;;;;;;;36.47;30.60;;;7.70;99.90;;;;;;5014649;28;20267;-65
2021/12/14 06:22:55;;;;;;;39.25;32.40;;;7.70;99.90;;;;;;5022701;28;20687;-65
2021/12/14 06:25:27;;;;;;;34.28;29.48;;;7.80;99.90;;;;;;5025298;28;20327;-68
2021/12/14 06:27:59;;;;;;;33.95;29.38;;;7.80;99.90;;;;;;5018486;28;20228;-66
2021/12/14 06:30:31;;;;;;;32.97;29.48;;;7.90;99.90;;;;;;5021729;28;20221;-65
2021/12/14 06:33:01;;;;;;;34.88;30.45;;;8.00;99.90;;;;;;5029230;28;20224;-65
2021/12/14 06:35:35;;;;;;;36.72;30.58;;;8.00;99.90;;;;;;5027507;28;20376;-67
2021/12/14 06:38:23;;;;;;;37.65;30.02;;;8.00;99.90;;;;;;5018256;28;20605;-64
2021/12/14 06:40:57;;;;;;;34.90;29.55;;;8.00;99.90;;;;;;5012379;28;20283;-65
2021/12/14 06:43:27;;;;;;;33.70;30.10;;;8.10;99.90;;;;;;5029115;28;20240;-68
2021/12/14 06:45:59;;;;;;;37.20;32.60;;;8.10;99.90;;;;;;5022924;28;20788;-65
2021/12/14 06:48:33;;;;;;;37.65;32.38;;;8.10;99.90;;;;;;5026699;28;20236;-64
2021/12/14 06:51:05;;;;;;;40.10;34.40;;;7.90;99.90;;;;;;5020630;28;20599;-65
2021/12/14 06:53:35;;;;;;;41.85;34.00;;;7.70;99.90;;;;;;5029098;28;20236;-67
2021/12/14 06:56:06;;;;;;;39.30;33.53;;;7.60;99.90;;;;;;5008294;28;20231;-65
2021/12/14 06:58:38;;;;;;;41.25;34.45;;;7.60;99.90;;;;;;5026435;28;20681;-66
2021/12/14 07:01:11;;;;;;;39.63;33.50;;;7.70;99.90;;;;;;5025211;28;20228;-65
2021/12/14 07:03:42;;;;;;;39.55;33.15;;;7.70;99.90;;;;;;5028673;28;20259;-65
2021/12/14 07:06:14;;;;;;;38.65;33.30;;;7.70;99.90;;;;;;5015849;28;20229;-65
2021/12/14 07:08:42;;;;;;;38.70;34.47;;;7.80;99.90;;;;;;5028306;28;20235;-65
2021/12/14 07:11:10;;;;;;;39.17;33.15;;;7.90;99.90;;;;;;5025718;28;20332;-65
2021/12/14 07:13:41;;;;;;;38.78;33.47;;;7.90;99.90;;;;;;5017558;28;20207;-65
2021/12/14 07:16:22;;;;;;;34.88;31.02;;;7.90;99.90;;;;;;5020244;28;20213;-65
2021/12/14 07:18:54;;;;;;;35.40;31.65;;;8.00;99.90;;;;;;5014124;28;20286;-65
2021/12/14 07:21:36;;;;;;;39.17;31.05;;;7.90;99.90;;;;;;5014969;28;20208;-64
2021/12/14 07:24:33;;;;;;;37.88;31.85;;;7.80;99.90;;;;;;5018861;28;20217;-66
2021/12/14 07:27:22;;;;;;;38.72;32.17;;;7.80;99.90;;;;;;5013186;28;20236;-65
2021/12/14 07:29:51;;;;;;;40.80;33.67;;;7.70;99.90;;;;;;4993421;28;20241;-65
2021/12/14 07:32:52;;;;;;;41.40;33.92;;;7.60;99.90;;;;;;4991206;28;20332;-65
2021/12/14 07:35:27;;;;;;;37.95;33.10;;;7.60;99.90;;;;;;4993073;28;20210;-66
2021/12/14 07:37:58;;;;;;;43.85;33.25;;;7.70;99.90;;;;;;4993465;28;20181;-65
2021/12/14 07:40:35;;;;;;;45.83;35.67;;;7.70;99.90;;;;;;4993236;28;20249;-65
2021/12/14 07:43:10;;;;;;;39.22;31.42;;;7.60;99.90;;;;;;4993467;28;20213;-66
2021/12/14 07:45:38;;;;;;;42.15;34.95;;;7.60;99.90;;;;;;5005499;28;20244;-65
2021/12/14 07:48:07;;;;;;;43.70;37.30;;;7.60;99.90;;;;;;5027777;28;20292;-65
2021/12/14 07:50:45;;;;;;;42.20;34.20;;;7.60;99.90;;;;;;5033279;28;20254;-65
2021/12/14 07:53:14;;;;;;;44.72;37.17;;;7.50;99.90;;;;;;5033005;28;20192;-65
2021/12/14 07:55:45;;;;;;;46.17;37.47;;;7.50;99.90;;;;;;5033081;28;20232;-66
2021/12/14 07:58:13;;;;;;;38.70;33.20;;;7.50;99.90;;;;;;5033245;28;20327;-65
2021/12/14 08:00:42;;;;;;;43.80;35.10;;;7.40;99.90;;;;;;5032977;28;20196;-65
2021/12/14 08:03:12;;;;;;;39.65;33.55;;;7.50;99.90;;;;;;5011945;28;20249;-66
2021/12/14 08:05:43;;;;;;;53.22;41.15;;;7.50;99.90;;;;;;5012998;28;20261;-65
2021/12/14 08:08:18;;;;;;;47.85;38.13;;;7.50;99.90;;;;;;5013375;28;20280;-65
2021/12/14 08:11:08;;;;;;;120.38;78.25;;;7.50;99.90;;;;;;5013193;28;20296;-66
2021/12/14 08:13:44;;;;;;;114.20;80.05;;;7.50;99.90;;;;;;5013090;28;20284;-65
2021/12/14 08:16:12;;;;;;;72.75;55.92;;;7.50;99.90;;;;;;5012901;28;20221;-65
2021/12/14 08:18:45;;;;;;;59.53;48.00;;;7.50;99.90;;;;;;5022668;28;20192;-65
2021/12/14 08:21:19;;;;;;;45.60;36.92;;;7.50;99.90;;;;;;5032917;28;20196;-65
2021/12/14 08:23:52;;;;;;;41.90;37.28;;;7.60;99.90;;;;;;5032514;28;20531;-65
2021/12/14 08:26:23;;;;;;;40.90;34.30;;;7.60;99.90;;;;;;5032593;22;20275;-64
2021/12/14 08:28:54;;;;;;;38.22;34.08;;;7.70;99.90;;;;;;5005150;28;20288;-64
2021/12/14 08:31:25;;;;;;;33.42;29.83;;;7.60;99.90;;;;;;5012644;28;20194;-64
2021/12/14 08:33:56;;;;;;;37.03;31.25;;;7.70;99.90;;;;;;5012550;28;20670;-64
2021/12/14 08:36:26;;;;;;;35.78;31.92;;;7.70;99.90;;;;;;5012260;28;20232;-64
2021/12/14 08:39:14;;;;;;;36.10;31.05;;;7.70;99.90;;;;;;5012362;28;20738;-64
2021/12/14 08:41:50;;;;;;;33.45;29.77;;;7.80;99.90;;;;;;5012330;28;20229;-64
2021/12/14 08:44:33;;;;;;;37.90;30.27;;;7.70;99.90;;;;;;5012302;28;20235;-64
2021/12/14 08:47:02;;;;;;;37.15;31.25;;;7.60;99.90;;;;;;5012163;28;20251;-64
2021/12/14 08:49:32;;;;;;;35.10;31.30;;;7.70;99.90;;;;;;5012064;28;20203;-64
2021/12/14 08:52:00;;;;;;;31.40;28.00;;;7.60;99.90;;;;;;5012042;28;20304;-64
2021/12/14 08:54:30;;;;;;;35.03;31.15;;;7.70;99.90;;;;;;5012077;28;20205;-64
2021/12/14 08:57:01;;;;;;;32.67;29.27;;;7.70;99.90;;;;;;5011100;28;20201;-64
2021/12/14 08:59:30;;;;;;;34.85;31.15;;;7.80;99.90;;;;;;5012078;28;20239;-64
2021/12/14 09:02:00;;;;;;;35.08;31.17;;;7.70;99.90;;;;;;5011941;28;20296;-64
2021/12/14 09:04:33;;;;;;;33.42;29.92;;;7.70;99.90;;;;;;5011989;28;20197;-64
2021/12/14 09:07:06;;;;;;;33.78;30.02;;;7.70;99.90;;;;;;5011773;28;20584;-64
2021/12/14 09:09:34;;;;;;;34.08;30.27;;;7.70;99.90;;;;;;5012028;28;20387;-64
2021/12/14 09:12:06;;;;;;;37.17;30.88;;;7.60;99.90;;;;;;5011521;28;20280;-64
2021/12/14 09:14:34;;;;;;;37.10;31.25;;;7.60;99.90;;;;;;5011586;28;20233;-64
2021/12/14 09:17:05;;;;;;;35.30;29.75;;;7.60;99.90;;;;;;5011409;28;20228;-64
2021/12/14 09:19:38;;;;;;;34.95;30.52;;;7.50;99.90;;;;;;5011932;28;20213;-64
2021/12/14 09:22:10;;;;;;;33.90;30.20;;;7.50;99.90;;;;;;5012037;28;20285;-64
2021/12/14 09:24:39;;;;;;;35.38;31.13;;;7.50;99.90;;;;;;5011259;28;20276;-64
2021/12/14 09:27:10;;;;;;;32.20;28.83;;;7.60;99.90;;;;;;5010800;28;20295;-64
2021/12/14 09:29:39;;;;;;;35.03;29.92;;;7.60;99.90;;;;;;5011818;28;20634;-64
2021/12/14 09:32:09;;;;;;;32.95;29.02;;;7.70;99.90;;;;;;5011738;28;20304;-64
2021/12/14 09:34:41;;;;;;;32.75;29.25;;;7.80;99.90;;;;;;5011391;28;20241;-63
2021/12/14 09:37:11;;;;;;;33.88;29.88;;;7.80;99.90;;;;;;5011387;28;20503;-64
2021/12/14 09:39:44;;;;;;;36.05;32.10;;;7.80;99.90;;;;;;5011739;28;20232;-64
2021/12/14 09:42:15;;;;;;;38.55;32.20;;;7.80;99.90;;;;;;5011550;28;20280;-64
2021/12/14 09:44:44;;;;;;;34.50;30.75;;;7.70;99.90;;;;;;5011246;28;20249;-65
2021/12/14 09:47:15;;;;;;;33.92;30.25;;;7.70;99.90;;;;;;5010871;28;20240;-64
2021/12/14 09:49:47;;;;;;;38.30;33.30;;;7.50;99.90;;;;;;5011591;28;20285;-65
2021/12/14 09:52:19;;;;;;;38.30;33.72;;;7.50;99.90;;;;;;5011141;28;20319;-64
2021/12/14 09:54:47;;;;;;;36.75;31.73;;;7.50;99.90;;;;;;5011163;28;20702;-64
2021/12/14 09:57:20;;;;;;;44.15;36.65;;;7.50;99.90;;;;;;5011101;28;20603;-64
2021/12/14 09:59:48;;;;;;;49.25;36.25;;;7.50;99.90;;;;;;5011625;28;20731;-64
2021/12/14 10:02:20;;;;;;;37.33;32.83;;;7.40;99.90;;;;;;5011300;28;20232;-64
2021/12/14 10:04:52;;;;;;;45.08;36.92;;;7.40;99.90;;;;;;5014458;28;20565;-64
2021/12/14 10:07:23;;;;;;;50.88;37.88;;;7.40;99.90;;;;;;5014695;28;20216;-64
2021/12/14 10:09:53;;;;;;;50.20;38.35;;;7.40;99.90;;;;;;5015773;28;20193;-65
2021/12/14 10:15:16;;;;;;;47.05;37.20;;;7.40;99.90;;;;;;5011535;28;20217;-64
2021/12/14 10:17:45;;;;;;;53.15;39.97;;;7.30;99.90;;;;;;5012726;28;20225;-64
2021/12/14 10:20:19;;;;;;;53.72;40.67;;;7.40;99.90;;;;;;5014885;28;20232;-65
2021/12/14 10:22:51;;;;;;;63.58;43.53;;;7.30;99.90;;;;;;5007417;28;20285;-64
2021/12/14 10:25:22;;;;;;;60.85;43.15;;;7.30;99.90;;;;;;5014851;28;20611;-64
2021/12/14 10:27:50;;;;;;;58.33;39.97;;;7.40;99.90;;;;;;5014863;28;20312;-64
2021/12/14 10:30:25;;;;;;;51.33;38.53;;;7.40;99.90;;;;;;5015269;28;20247;-64
2021/12/14 10:32:53;;;;;;;56.85;41.92;;;7.40;99.90;;;;;;5014556;28;20324;-64
2021/12/14 10:35:32;;;;;;;76.50;52.80;;;7.40;99.90;;;;;;5014628;28;20245;-65
2021/12/14 10:38:12;;;;;;;53.33;39.70;;;7.40;99.90;;;;;;5014923;28;20227;-65
2021/12/14 10:43:29;;;;;;;56.65;43.13;;;7.40;99.90;;;;;;5014911;28;20205;-64
2021/12/14 10:45:59;;;;;;;60.25;44.33;;;7.30;99.90;;;;;;5014301;28;20292;-64
2021/12/14 10:48:32;;;;;;;53.83;41.45;;;7.30;99.90;;;;;;5014346;28;20209;-64
2021/12/14 10:51:10;;;;;;;49.58;37.00;;;7.30;99.90;;;;;;5014478;28;20752;-64
2021/12/14 10:53:42;;;;;;;52.95;37.53;;;7.30;99.90;;;;;;5014552;28;20231;-65
2021/12/14 10:56:34;;;;;;;50.78;36.72;;;7.30;99.90;;;;;;5014110;28;20213;-65
2021/12/14 10:59:06;;;;;;;48.50;35.97;;;7.40;99.90;;;;;;5014648;28;20473;-64
2021/12/14 11:01:35;;;;;;;47.88;34.60;;;7.40;99.90;;;;;;5014413;28;20236;-65
2021/12/14 11:04:08;;;;;;;43.40;31.73;;;7.50;99.90;;;;;;5014269;28;20197;-64
2021/12/14 11:06:42;;;;;;;41.15;33.53;;;7.50;99.90;;;;;;5014118;28;20213;-64
2021/12/14 11:12:07;;;;;;;47.83;36.70;;;7.60;99.90;;;;;;5012675;28;20229;-64
2021/12/14 11:14:37;;;;;;;47.88;37.55;;;7.70;99.90;;;;;;5013432;28;20331;-64
2021/12/14 11:19:57;;;;;;;46.60;32.35;;;7.60;99.90;;;;;;5007191;28;20714;-65
2021/12/14 11:22:33;;;;;;;38.50;32.53;;;7.60;99.90;;;;;;5014174;28;20189;-64
2021/12/14 11:25:06;;;;;;;40.75;31.08;;;7.60;99.90;;;;;;5013495;28;20237;-65
2021/12/14 11:27:38;;;;;;;42.75;30.25;;;7.60;99.90;;;;;;5013688;28;20305;-65
2021/12/14 11:30:18;;;;;;;42.55;31.88;;;7.50;99.90;;;;;;5013992;28;20620;-65
2021/12/14 11:32:48;;;;;;;40.83;29.98;;;7.60;99.90;;;;;;5013509;28;20280;-64
2021/12/14 11:35:20;;;;;;;42.15;33.42;;;7.60;99.90;;;;;;5013519;28;20313;-65
2021/12/14 11:37:50;;;;;;;38.25;30.95;;;7.60;99.90;;;;;;5013705;28;20639;-65
2021/12/14 11:40:21;;;;;;;41.40;30.38;;;7.60;99.90;;;;;;5013462;28;20221;-64
2021/12/14 11:42:48;;;;;;;45.85;30.35;;;7.70;99.90;;;;;;5013914;28;20243;-64
2021/12/14 11:45:20;;;;;;;36.10;29.13;;;7.70;99.90;;;;;;5013420;28;20335;-64
2021/12/14 11:47:51;;;;;;;37.08;30.45;;;7.70;99.90;;;;;;5012885;28;20694;-64
2021/12/14 11:50:24;;;;;;;35.35;27.98;;;7.70;99.90;;;;;;5013387;28;20189;-64
2021/12/14 11:52:57;;;;;;;34.63;27.25;;;7.80;99.90;;;;;;5013421;28;20232;-65
2021/12/14 11:55:34;;;;;;;35.42;28.38;;;7.80;99.90;;;;;;5013089;28;20253;-64
2021/12/14 11:58:13;;;;;;;40.97;30.25;;;7.70;99.90;;;;;;5013480;28;20631;-65
2021/12/14 12:00:44;;;;;;;37.78;27.10;;;7.80;99.90;;;;;;5013387;28;20599;-65
2021/12/14 12:03:20;;;;;;;32.08;26.30;;;7.80;99.90;;;;;;5012529;28;20211;-65
2021/12/14 12:06:05;;;;;;;35.92;28.33;;;7.90;99.90;;;;;;5013140;28;20563;-65
2021/12/14 12:11:25;;;;;;;31.92;26.75;;;7.90;99.90;;;;;;5013197;28;20247;-65
2021/12/14 12:13:52;;;;;;;32.65;28.75;;;7.90;99.90;;;;;;5013238;28;20284;-64
2021/12/14 12:16:23;;;;;;;32.55;26.02;;;8.00;99.90;;;;;;5012911;28;20221;-65
2021/12/14 12:19:05;;;;;;;30.80;25.85;;;8.00;99.90;;;;;;5010883;28;20225;-65
2021/12/14 12:21:34;;;;;;;30.25;26.15;;;8.10;99.90;;;;;;5012883;28;20292;-64
2021/12/14 12:24:04;;;;;;;34.55;29.00;;;8.10;99.90;;;;;;5012671;28;20229;-64
2021/12/14 12:26:34;;;;;;;30.35;26.73;;;8.20;99.90;;;;;;5011534;28;20260;-64
2021/12/14 12:29:07;;;;;;;34.00;28.85;;;8.10;99.90;;;;;;5012954;28;20654;-65
2021/12/14 12:31:46;;;;;;;33.00;26.85;;;8.20;99.90;;;;;;5012615;28;20291;-65
2021/12/14 12:34:14;;;;;;;33.35;27.48;;;8.10;99.90;;;;;;4992891;28;20293;-64
2021/12/14 12:36:43;;;;;;;33.95;28.30;;;8.20;99.90;;;;;;4992936;28;20218;-64
2021/12/14 12:39:15;;;;;;;30.65;26.25;;;8.30;99.90;;;;;;4993293;28;20597;-65
2021/12/14 12:41:48;;;;;;;33.97;28.75;;;8.40;99.90;;;;;;4992895;28;20719;-64
2021/12/14 12:44:20;;;;;;;32.88;26.77;;;8.40;99.90;;;;;;4992793;28;20198;-65
2021/12/14 12:46:54;;;;;;;32.60;28.75;;;8.50;99.90;;;;;;4995201;28;20271;-64
2021/12/14 12:49:24;;;;;;;29.80;25.35;;;8.50;99.90;;;;;;5012328;28;20205;-64
2021/12/14 12:52:07;;;;;;;34.63;25.73;;;8.60;99.90;;;;;;5012042;28;20659;-64
2021/12/14 12:54:52;;;;;;;29.98;24.52;;;8.60;99.90;;;;;;5012137;28;20296;-64
2021/12/14 12:57:38;;;;;;;25.40;22.33;;;8.70;99.90;;;;;;5011799;28;20291;-64
2021/12/14 13:00:28;;;;;;;24.95;22.40;;;8.70;99.90;;;;;;5012457;28;20578;-64
2021/12/14 13:03:01;;;;;;;22.98;19.67;;;8.80;99.90;;;;;;5011652;28;20225;-63
2021/12/14 13:05:34;;;;;;;23.13;20.63;;;8.80;99.90;;;;;;5012129;28;20228;-64
2021/12/14 13:08:12;;;;;;;24.60;19.73;;;8.90;99.90;;;;;;5012142;28;20247;-64
2021/12/14 13:10:46;;;;;;;21.85;19.55;;;8.80;99.90;;;;;;5011790;28;20236;-64
2021/12/14 13:13:17;;;;;;;21.33;17.65;;;8.80;99.90;;;;;;5011799;28;20292;-64
2021/12/14 13:15:58;;;;;;;21.52;19.00;;;8.80;99.90;;;;;;5011908;28;20275;-64
2021/12/14 13:18:49;;;;;;;19.05;17.05;;;8.90;99.90;;;;;;5011055;28;20200;-64
2021/12/14 13:21:27;;;;;;;15.13;13.63;;;8.80;99.90;;;;;;5011859;28;20634;-64
2021/12/14 13:24:04;;;;;;;14.18;12.60;;;8.70;99.90;;;;;;5011472;28;20251;-66
2021/12/14 13:26:50;;;;;;;9.27;8.35;;;8.70;99.90;;;;;;5011540;28;20319;-64
2021/12/14 13:29:44;;;;;;;8.48;7.70;;;8.70;99.90;;;;;;5009767;28;20327;-64
2021/12/14 13:32:23;;;;;;;10.10;8.98;;;8.70;99.90;;;;;;5010805;28;20197;-63
2021/12/14 13:34:58;;;;;;;8.43;7.63;;;8.70;99.90;;;;;;5011087;28;20259;-64